createdAt,value
2022-12-26T00:00:23.091Z,5.05
2022-12-26T00:02:49.705Z,5.93
2022-12-26T00:05:16.375Z,5.00
2022-12-26T00:07:43.018Z,5.03
2022-12-26T00:10:09.784Z,5.05
2022-12-26T00:12:36.358Z,5.57
2022-12-26T00:15:03.012Z,7.05
2022-12-26T00:17:30.336Z,6.22
2022-12-26T00:19:56.884Z,9.57
2022-12-26T00:22:23.422Z,11.90
2022-12-26T00:24:49.970Z,15.90
2022-12-26T00:27:16.542Z,10.48
2022-12-26T00:29:43.112Z,12.15
2022-12-26T00:32:09.684Z,12.07
2022-12-26T00:34:36.618Z,12.50
2022-12-26T00:37:03.246Z,11.90
2022-12-26T00:39:29.956Z,10.20
2022-12-26T00:41:56.506Z,10.57
2022-12-26T00:44:23.077Z,8.65
2022-12-26T00:46:49.661Z,6.97
2022-12-26T00:49:16.371Z,6.47
2022-12-26T00:51:43.036Z,7.60
2022-12-26T00:54:09.587Z,7.07
2022-12-26T00:56:36.218Z,8.45
2022-12-26T00:59:02.947Z,6.70
2022-12-26T01:01:31.065Z,7.80
2022-12-26T01:03:58.499Z,7.20
2022-12-26T01:06:25.251Z,5.72
2022-12-26T01:08:52.818Z,5.03
2022-12-26T01:11:39.491Z,7.85
2022-12-26T01:14:10.012Z,7.18
2022-12-26T01:16:37.842Z,7.65
2022-12-26T01:19:05.135Z,8.18
2022-12-26T01:21:31.875Z,7.93
2022-12-26T01:23:58.473Z,6.18
2022-12-26T01:26:25.061Z,5.03
2022-12-26T01:28:52.670Z,6.72
2022-12-26T01:31:20.429Z,5.53
2022-12-26T01:33:47.965Z,7.03
2022-12-26T01:36:15.593Z,6.93
2022-12-26T01:38:42.275Z,5.90
2022-12-26T01:41:19.204Z,6.70
2022-12-26T01:44:00.682Z,6.65
2022-12-26T01:46:46.420Z,7.78
2022-12-26T01:49:21.154Z,7.20
2022-12-26T01:51:53.319Z,7.03
2022-12-26T01:54:38.228Z,8.18
2022-12-26T01:57:19.804Z,8.30
2022-12-26T01:59:48.259Z,7.35
2022-12-26T02:02:16.808Z,7.03
2022-12-26T02:05:06.632Z,8.35
2022-12-26T02:07:36.512Z,8.43
2022-12-26T02:10:05.909Z,7.07
2022-12-26T02:12:38.893Z,7.65
2022-12-26T02:15:12.832Z,11.35
2022-12-26T02:17:40.547Z,10.45
2022-12-26T02:20:25.782Z,9.73
2022-12-26T02:23:29.158Z,11.73
2022-12-26T02:26:31.949Z,9.25
2022-12-26T02:29:21.586Z,8.98
2022-12-26T02:32:19.388Z,9.88
2022-12-26T02:34:54.306Z,11.80
2022-12-26T02:37:58.512Z,12.55
2022-12-26T02:40:30.545Z,9.80
2022-12-26T02:43:21.506Z,12.68
2022-12-26T02:46:24.667Z,11.32
2022-12-26T02:49:12.480Z,9.48
2022-12-26T02:52:13.733Z,11.60
2022-12-26T02:55:14.930Z,12.80
2022-12-26T02:58:18.220Z,10.95
2022-12-26T03:01:06.747Z,10.60
2022-12-26T03:03:54.810Z,12.25
2022-12-26T03:06:44.726Z,12.95
2022-12-26T03:09:37.829Z,13.23
2022-12-26T03:12:44.030Z,13.52
2022-12-26T03:15:14.154Z,13.55
2022-12-26T03:18:05.362Z,12.50
2022-12-26T03:20:35.841Z,13.93
2022-12-26T03:23:15.958Z,13.82
2022-12-26T03:26:03.396Z,10.80
2022-12-26T03:28:30.717Z,12.85
2022-12-26T03:31:00.934Z,12.60
2022-12-26T03:34:05.410Z,12.30
2022-12-26T03:37:00.387Z,10.88
2022-12-26T03:40:07.572Z,9.60
2022-12-26T03:43:05.538Z,11.73
2022-12-26T03:46:13.972Z,13.07
2022-12-26T03:49:17.065Z,11.55
2022-12-26T03:52:23.450Z,10.15
2022-12-26T03:55:23.037Z,9.48
2022-12-26T03:58:26.822Z,10.60
2022-12-26T04:01:15.386Z,10.80
2022-12-26T04:04:03.771Z,9.52
2022-12-26T04:07:14.876Z,9.60
2022-12-26T04:10:13.935Z,10.80
2022-12-26T04:13:01.477Z,10.23
2022-12-26T04:16:19.520Z,11.80
2022-12-26T04:19:14.548Z,10.43
2022-12-26T04:22:10.703Z,11.32
2022-12-26T04:25:05.983Z,12.40
2022-12-26T04:27:51.965Z,11.93
2022-12-26T04:30:37.469Z,11.90
2022-12-26T04:33:53.340Z,12.48
2022-12-26T04:36:51.412Z,11.93
2022-12-26T04:39:42.579Z,9.98
2022-12-26T04:42:29.144Z,13.07
2022-12-26T04:44:57.308Z,10.98
2022-12-26T04:47:24.170Z,11.93
2022-12-26T04:50:09.297Z,11.95
2022-12-26T04:52:54.646Z,9.88
2022-12-26T04:55:21.249Z,10.75
2022-12-26T04:57:47.929Z,11.07
2022-12-26T05:00:14.916Z,11.38
2022-12-26T05:03:00.328Z,11.68
2022-12-26T05:05:45.593Z,10.57
2022-12-26T05:08:49.392Z,10.98
2022-12-26T05:11:15.938Z,10.05
2022-12-26T05:13:42.504Z,10.63
2022-12-26T05:16:27.918Z,11.82
2022-12-26T05:19:13.304Z,12.13
2022-12-26T05:21:58.782Z,10.43
2022-12-26T05:24:50.603Z,11.98
2022-12-26T05:27:36.097Z,11.80
2022-12-26T05:30:03.343Z,10.18
2022-12-26T05:32:48.567Z,11.40
2022-12-26T05:35:15.272Z,10.70
2022-12-26T05:37:41.845Z,12.40
2022-12-26T05:40:08.998Z,10.07
2022-12-26T05:42:35.702Z,9.93
2022-12-26T05:45:02.274Z,8.30
2022-12-26T05:47:28.949Z,11.13
2022-12-26T05:49:55.524Z,8.98
2022-12-26T05:52:22.114Z,10.00
2022-12-26T05:54:48.702Z,9.07
2022-12-26T05:57:15.359Z,8.00
2022-12-26T05:59:41.912Z,10.20
2022-12-26T06:02:08.596Z,11.13
2022-12-26T06:04:36.403Z,9.82
2022-12-26T06:07:03.207Z,9.20
2022-12-26T06:09:29.914Z,11.25
2022-12-26T06:11:56.560Z,8.10
2022-12-26T06:14:23.260Z,8.80
2022-12-26T06:16:49.886Z,8.88
2022-12-26T06:19:16.571Z,10.52
2022-12-26T06:21:43.247Z,9.48
2022-12-26T06:24:09.904Z,12.40
2022-12-26T06:26:37.691Z,13.70
2022-12-26T06:29:04.264Z,11.38
2022-12-26T06:31:31.028Z,11.30
2022-12-26T06:34:00.485Z,13.23
2022-12-26T06:36:28.445Z,10.77
2022-12-26T06:38:55.393Z,12.48
2022-12-26T06:41:25.621Z,10.35
2022-12-26T06:43:52.564Z,10.93
2022-12-26T06:46:21.555Z,12.70
2022-12-26T06:48:48.612Z,13.43
2022-12-26T06:51:23.707Z,12.40
2022-12-26T06:53:51.594Z,12.93
2022-12-26T06:56:24.405Z,13.52
2022-12-26T06:58:55.813Z,13.40
2022-12-26T07:01:23.910Z,15.53
2022-12-26T07:03:52.651Z,13.52
2022-12-26T07:06:22.198Z,11.68
2022-12-26T07:08:49.410Z,13.38
2022-12-26T07:11:22.511Z,13.23
2022-12-26T07:13:49.430Z,13.73
2022-12-26T07:16:16.177Z,13.38
2022-12-26T07:18:43.014Z,13.10
2022-12-26T07:21:12.704Z,15.45
2022-12-26T07:23:40.081Z,15.50
2022-12-26T07:26:07.160Z,15.07
2022-12-26T07:28:34.247Z,15.50
2022-12-26T07:31:01.258Z,16.88
2022-12-26T07:33:28.928Z,14.55
2022-12-26T07:36:00.292Z,17.08
2022-12-26T07:38:27.031Z,16.70
2022-12-26T07:40:57.353Z,14.50
2022-12-26T07:43:24.947Z,16.50
2022-12-26T07:45:52.709Z,14.38
2022-12-26T07:48:19.436Z,14.82
2022-12-26T07:50:47.325Z,13.77
2022-12-26T07:53:14.938Z,13.98
2022-12-26T07:55:41.631Z,14.35
2022-12-26T07:58:08.372Z,15.13
2022-12-26T08:00:35.030Z,14.93
2022-12-26T08:03:07.439Z,12.35
2022-12-26T08:05:35.112Z,15.02
2022-12-26T08:08:01.815Z,12.50
2022-12-26T08:10:28.541Z,12.55
2022-12-26T08:12:55.230Z,13.77
2022-12-26T08:15:21.812Z,13.45
2022-12-26T08:17:48.410Z,13.43
2022-12-26T08:20:15.057Z,14.85
2022-12-26T08:22:41.645Z,14.98
2022-12-26T08:25:08.997Z,12.00
2022-12-26T08:27:35.761Z,12.77
2022-12-26T08:30:02.879Z,13.88
2022-12-26T08:32:29.472Z,12.85
2022-12-26T08:34:56.224Z,13.57
2022-12-26T08:37:26.059Z,12.82
2022-12-26T08:39:53.508Z,14.23
2022-12-26T08:42:21.583Z,12.70
2022-12-26T08:44:48.477Z,13.35
2022-12-26T08:47:15.712Z,10.98
2022-12-26T08:49:42.358Z,11.63
2022-12-26T08:52:09.026Z,10.50
2022-12-26T08:54:35.703Z,10.18
2022-12-26T08:57:02.332Z,11.10
2022-12-26T08:59:29.081Z,10.13
2022-12-26T09:01:55.681Z,11.02
2022-12-26T09:04:23.110Z,12.23
2022-12-26T09:06:49.785Z,12.82
2022-12-26T09:09:16.485Z,11.60
2022-12-26T09:11:43.524Z,9.65
2022-12-26T09:14:10.948Z,9.35
2022-12-26T09:16:50.557Z,9.80
2022-12-26T09:19:19.508Z,7.18
2022-12-26T09:21:47.567Z,11.73
2022-12-26T09:24:17.808Z,10.18
2022-12-26T09:26:45.038Z,8.57
2022-12-26T09:29:12.962Z,6.82
2022-12-26T09:31:39.825Z,7.25
2022-12-26T09:34:07.452Z,8.57
2022-12-26T09:36:40.595Z,7.47
2022-12-26T09:39:08.310Z,7.75
2022-12-26T09:42:05.972Z,7.57
2022-12-26T09:44:35.586Z,7.22
2022-12-26T09:47:16.073Z,7.22
2022-12-26T09:49:55.383Z,8.93
2022-12-26T09:52:32.293Z,7.93
2022-12-26T09:55:04.498Z,6.97
2022-12-26T09:57:42.665Z,7.65
2022-12-26T10:00:19.986Z,6.70
2022-12-26T10:02:53.843Z,7.43
2022-12-26T10:05:27.718Z,9.05
2022-12-26T10:08:01.276Z,8.38
2022-12-26T10:10:45.684Z,7.38
2022-12-26T10:13:39.000Z,8.20
2022-12-26T10:16:15.805Z,7.63
2022-12-26T10:19:01.010Z,8.05
2022-12-26T10:21:30.656Z,6.43
2022-12-26T10:24:03.991Z,8.43
2022-12-26T10:26:39.676Z,8.52
2022-12-26T10:29:19.956Z,8.65
2022-12-26T10:32:04.638Z,7.47
2022-12-26T10:34:41.384Z,8.07
2022-12-26T10:37:24.332Z,8.18
2022-12-26T10:40:23.285Z,8.55
2022-12-26T10:42:55.725Z,9.15
2022-12-26T10:45:38.563Z,8.23
2022-12-26T10:48:05.895Z,7.65
2022-12-26T10:50:35.387Z,10.70
2022-12-26T10:53:06.843Z,9.40
2022-12-26T10:55:35.439Z,9.13
2022-12-26T10:58:14.204Z,8.98
2022-12-26T11:00:40.980Z,10.55
2022-12-26T11:03:14.563Z,8.38
2022-12-26T11:06:07.124Z,9.38
2022-12-26T11:08:46.443Z,7.97
2022-12-26T11:11:20.608Z,7.95
2022-12-26T11:13:52.440Z,7.63
2022-12-26T11:16:48.801Z,8.27
2022-12-26T11:19:37.595Z,7.97
2022-12-26T11:22:24.654Z,7.30
2022-12-26T11:25:09.702Z,5.07
2022-12-26T11:27:45.346Z,5.95
2022-12-26T11:30:16.819Z,5.65
2022-12-26T11:32:49.458Z,6.17
2022-12-26T11:35:17.671Z,5.07
2022-12-26T11:37:45.954Z,5.07
2022-12-26T11:40:18.431Z,5.13
2022-12-26T11:42:50.895Z,4.90
2022-12-26T11:45:23.974Z,6.22
2022-12-26T11:47:51.288Z,5.03
2022-12-26T11:50:21.501Z,4.78
2022-12-26T11:52:57.107Z,4.63
2022-12-26T11:55:29.581Z,5.15
2022-12-26T11:58:19.534Z,5.13
2022-12-26T12:00:54.214Z,4.13
2022-12-26T12:03:30.061Z,5.45
2022-12-26T12:06:05.548Z,3.90
2022-12-26T12:08:42.876Z,5.72
2022-12-26T12:11:16.173Z,5.57
2022-12-26T12:14:02.012Z,4.15
2022-12-26T12:17:05.061Z,4.90
2022-12-26T12:19:45.187Z,4.55
2022-12-26T12:22:45.495Z,4.93
2022-12-26T12:25:35.772Z,3.40
2022-12-26T12:28:14.328Z,6.53
2022-12-26T12:30:56.093Z,5.72
2022-12-26T12:33:42.798Z,4.38
2022-12-26T12:36:11.139Z,5.95
2022-12-26T12:39:35.860Z,3.63
2022-12-26T12:42:20.173Z,5.00
2022-12-26T12:45:15.118Z,4.90
2022-12-26T12:48:16.919Z,4.47
2022-12-26T12:50:56.782Z,4.93
2022-12-26T12:53:52.927Z,4.57
2022-12-26T12:56:52.644Z,4.55
2022-12-26T12:59:39.981Z,4.35
2022-12-26T13:02:21.200Z,4.55
2022-12-26T13:04:54.421Z,5.65
2022-12-26T13:07:29.071Z,5.97
2022-12-26T13:10:02.411Z,4.63
2022-12-26T13:12:38.440Z,5.20
2022-12-26T13:15:33.671Z,5.65
2022-12-26T13:18:11.743Z,4.60
2022-12-26T13:20:48.782Z,5.13
2022-12-26T13:23:59.031Z,4.85
2022-12-26T13:26:38.512Z,3.88
2022-12-26T13:29:39.020Z,4.82
2022-12-26T13:32:24.560Z,4.47
2022-12-26T13:34:53.290Z,4.97
2022-12-26T13:37:53.796Z,4.93
2022-12-26T13:40:24.383Z,4.20
2022-12-26T13:43:14.600Z,2.88
2022-12-26T13:45:41.191Z,3.05
2022-12-26T13:48:36.735Z,1.75
2022-12-26T13:51:05.592Z,4.15
2022-12-26T13:53:37.118Z,3.85
2022-12-26T13:56:17.291Z,1.98
2022-12-26T13:59:09.542Z,3.22
2022-12-26T14:02:01.407Z,3.05
2022-12-26T14:04:57.367Z,1.88
2022-12-26T14:07:33.587Z,2.95
2022-12-26T14:10:31.006Z,2.90
2022-12-26T14:13:05.597Z,2.00
2022-12-26T14:15:49.737Z,2.85
2022-12-26T14:18:37.205Z,1.83
2022-12-26T14:21:13.073Z,1.38
2022-12-26T14:24:10.111Z,2.70
2022-12-26T14:26:55.609Z,1.88
2022-12-26T14:29:40.544Z,2.00
2022-12-26T14:32:27.873Z,2.00
2022-12-26T14:35:33.968Z,2.75
2022-12-26T14:38:24.590Z,2.72
2022-12-26T14:41:07.375Z,2.17
2022-12-26T14:43:40.796Z,2.90
2022-12-26T14:46:32.130Z,1.92
2022-12-26T14:49:16.836Z,2.90
2022-12-26T14:51:43.998Z,2.45
2022-12-26T14:54:37.990Z,2.22
2022-12-26T14:57:39.407Z,2.45
2022-12-26T15:00:21.342Z,1.67
2022-12-26T15:02:59.907Z,1.52
2022-12-26T15:05:28.786Z,1.77
2022-12-26T15:08:27.127Z,1.95
2022-12-26T15:11:07.225Z,2.38
2022-12-26T15:14:16.358Z,1.77
2022-12-26T15:16:51.610Z,1.25
2022-12-26T15:19:59.167Z,2.85
2022-12-26T15:22:34.749Z,1.48
2022-12-26T15:25:19.563Z,1.58
2022-12-26T15:28:01.774Z,2.38
2022-12-26T15:30:46.438Z,8.30
2022-12-26T15:33:32.288Z,3.47
2022-12-26T15:36:18.373Z,1.48
2022-12-26T15:38:56.814Z,1.67
2022-12-26T15:41:32.690Z,1.65
2022-12-26T15:44:11.445Z,1.63
2022-12-26T15:46:46.014Z,2.92
2022-12-26T15:49:27.606Z,2.15
2022-12-26T15:52:19.257Z,3.83
2022-12-26T15:55:26.188Z,3.10
2022-12-26T15:58:29.990Z,2.25
2022-12-26T16:00:56.923Z,1.52
2022-12-26T16:03:52.170Z,1.02
2022-12-26T16:06:43.202Z,2.22
2022-12-26T16:09:41.174Z,1.83
2022-12-26T16:12:26.888Z,1.70
2022-12-26T16:15:00.809Z,2.00
2022-12-26T16:17:28.241Z,2.63
2022-12-26T16:19:54.927Z,4.07
2022-12-26T16:22:48.390Z,2.70
2022-12-26T16:25:22.074Z,2.63
2022-12-26T16:27:56.739Z,3.55
2022-12-26T16:30:27.483Z,3.03
2022-12-26T16:32:55.153Z,3.05
2022-12-26T16:35:32.399Z,2.85
2022-12-26T16:38:01.528Z,3.45
2022-12-26T16:40:42.380Z,4.00
2022-12-26T16:43:26.428Z,3.97
2022-12-26T16:45:58.544Z,8.05
2022-12-26T16:48:27.516Z,5.43
2022-12-26T16:51:07.802Z,6.13
2022-12-26T16:53:34.376Z,12.02
2022-12-26T16:56:24.181Z,9.70
2022-12-26T16:59:17.248Z,7.65
2022-12-26T17:01:54.446Z,4.97
2022-12-26T17:04:24.946Z,6.68
2022-12-26T17:06:58.843Z,12.90
2022-12-26T17:09:28.711Z,3.42
2022-12-26T17:12:04.852Z,2.67
2022-12-26T17:14:38.604Z,2.72
2022-12-26T17:17:26.911Z,3.35
2022-12-26T17:19:56.176Z,3.00
2022-12-26T17:22:36.786Z,4.18
2022-12-26T17:25:21.358Z,3.75
2022-12-26T17:28:09.205Z,2.35
2022-12-26T17:30:41.226Z,3.45
2022-12-26T17:33:14.959Z,4.55
2022-12-26T17:36:38.330Z,4.10
2022-12-26T17:38:33.254Z,1.80
2022-12-26T17:41:03.803Z,2.22
2022-12-26T17:43:37.777Z,4.28
2022-12-26T17:46:06.468Z,4.70
2022-12-26T17:48:33.773Z,4.63
2022-12-26T17:51:04.582Z,1.48
2022-12-26T17:53:48.513Z,2.47
2022-12-26T17:56:22.581Z,4.35
2022-12-26T17:58:50.041Z,3.88
2022-12-26T18:01:21.466Z,5.25
2022-12-26T18:03:49.938Z,3.67
2022-12-26T18:06:17.244Z,4.88
2022-12-26T18:08:44.735Z,2.53
2022-12-26T18:11:13.484Z,3.47
2022-12-26T18:13:40.480Z,4.25
2022-12-26T18:16:08.009Z,3.88
2022-12-26T18:18:40.290Z,6.75
2022-12-26T18:23:35.088Z,5.38
2022-12-26T18:26:05.262Z,3.33
2022-12-26T18:28:33.075Z,3.15
2022-12-26T18:30:59.645Z,4.03
2022-12-26T18:33:26.226Z,4.75
2022-12-26T18:35:53.344Z,4.10
2022-12-26T18:38:21.965Z,3.22
2022-12-26T18:40:52.815Z,5.32
2022-12-26T18:43:19.655Z,3.53
2022-12-26T18:45:46.404Z,4.63
2022-12-26T18:48:15.383Z,7.85
2022-12-26T18:50:43.099Z,4.75
2022-12-26T18:53:09.895Z,4.40
2022-12-26T18:55:36.528Z,5.20
2022-12-26T18:58:03.199Z,5.35
2022-12-26T19:00:30.854Z,6.00
2022-12-26T19:02:57.583Z,6.68
2022-12-26T19:05:33.969Z,6.45
2022-12-26T19:08:02.704Z,3.67
2022-12-26T19:10:32.545Z,4.05
2022-12-26T19:13:05.746Z,4.00
2022-12-26T19:15:34.819Z,3.22
2022-12-26T19:18:01.924Z,6.25
2022-12-26T19:20:29.330Z,3.20
2022-12-26T19:22:56.261Z,4.20
2022-12-26T19:25:25.139Z,4.15
2022-12-26T19:27:52.420Z,4.07
2022-12-26T19:30:20.643Z,3.20
2022-12-26T19:32:48.110Z,4.28
2022-12-26T19:35:15.247Z,3.70
2022-12-26T19:37:42.287Z,6.20
2022-12-26T19:40:10.996Z,4.65
2022-12-26T19:42:38.344Z,3.88
2022-12-26T19:45:06.503Z,5.22
2022-12-26T19:47:34.713Z,6.43
2022-12-26T19:50:01.895Z,4.70
2022-12-26T19:52:29.279Z,5.93
2022-12-26T19:54:56.199Z,4.65
2022-12-26T19:57:23.284Z,4.38
2022-12-26T19:59:50.724Z,4.55
2022-12-26T20:02:17.602Z,4.72
2022-12-26T20:04:44.529Z,3.75
2022-12-26T20:07:11.312Z,4.18
2022-12-26T20:09:38.032Z,4.78
2022-12-26T20:12:04.762Z,4.55
2022-12-26T20:14:32.622Z,6.35
2022-12-26T20:17:05.641Z,5.13
2022-12-26T20:19:34.258Z,3.28
2022-12-26T20:22:00.889Z,3.90
2022-12-26T20:24:27.530Z,4.60
2022-12-26T20:26:54.328Z,4.18
2022-12-26T20:29:21.120Z,4.10
2022-12-26T20:31:48.032Z,3.20
2022-12-26T20:34:14.657Z,3.22
2022-12-26T20:36:41.771Z,3.08
2022-12-26T20:39:14.594Z,3.13
2022-12-26T20:41:41.367Z,3.65
2022-12-26T20:44:08.018Z,4.35
2022-12-26T20:46:35.625Z,4.32
2022-12-26T20:49:04.438Z,6.32
2022-12-26T20:51:37.789Z,4.68
2022-12-26T20:54:09.380Z,4.22
2022-12-26T20:56:36.880Z,3.90
2022-12-26T20:59:04.511Z,3.60
2022-12-26T21:01:31.387Z,3.70
2022-12-26T21:03:58.678Z,4.15
2022-12-26T21:06:29.166Z,4.18
2022-12-26T21:08:56.506Z,4.97
2022-12-26T21:11:27.783Z,2.63
2022-12-26T21:13:58.098Z,5.05
2022-12-26T21:16:28.393Z,3.22
2022-12-26T21:18:55.871Z,5.80
2022-12-26T21:21:29.868Z,2.65
2022-12-26T21:23:58.762Z,3.78
2022-12-26T21:26:26.464Z,3.13
2022-12-26T21:29:01.326Z,4.65
2022-12-26T21:31:29.935Z,4.00
2022-12-26T21:33:58.023Z,2.35
2022-12-26T21:36:25.539Z,3.03
2022-12-26T21:38:55.053Z,3.97
2022-12-26T21:41:22.536Z,4.47
2022-12-26T21:43:49.587Z,2.47
2022-12-26T21:46:19.168Z,4.20
2022-12-26T21:48:50.070Z,2.97
2022-12-26T21:51:18.200Z,4.07
2022-12-26T21:53:45.406Z,3.75
2022-12-26T21:56:14.084Z,3.25
2022-12-26T21:59:00.310Z,3.25
2022-12-26T22:01:28.038Z,3.95
2022-12-26T22:04:13.684Z,3.30
2022-12-26T22:06:41.210Z,3.55
2022-12-26T22:09:08.940Z,3.63
2022-12-26T22:11:54.345Z,6.28
2022-12-26T22:14:21.030Z,3.20
2022-12-26T22:16:50.860Z,5.55
2022-12-26T22:19:17.464Z,3.13
2022-12-26T22:21:44.040Z,4.10
2022-12-26T22:24:11.145Z,4.47
2022-12-26T22:26:37.827Z,3.85
2022-12-26T22:29:04.382Z,4.72
2022-12-26T22:31:36.143Z,3.80
2022-12-26T22:34:05.490Z,2.28
2022-12-26T22:36:34.335Z,2.58
2022-12-26T22:39:01.561Z,3.55
2022-12-26T22:41:28.175Z,3.88
2022-12-26T22:43:54.973Z,5.40
2022-12-26T22:46:21.739Z,3.95
2022-12-26T22:48:48.400Z,3.60
2022-12-26T22:51:20.711Z,4.43
2022-12-26T22:53:47.711Z,3.72
2022-12-26T22:56:15.087Z,5.88
2022-12-26T22:58:41.930Z,4.10
2022-12-26T23:01:14.117Z,5.55
2022-12-26T23:03:41.108Z,3.50
2022-12-26T23:06:21.577Z,3.05
2022-12-26T23:08:49.790Z,4.70
2022-12-26T23:11:17.027Z,3.33
2022-12-26T23:13:44.726Z,3.85
2022-12-26T23:16:22.331Z,3.85
2022-12-26T23:19:13.700Z,3.90
2022-12-26T23:21:43.444Z,2.78
2022-12-26T23:24:12.955Z,2.60
2022-12-26T23:26:41.753Z,3.33
2022-12-26T23:29:29.095Z,3.47
2022-12-26T23:31:55.733Z,2.97
2022-12-26T23:34:22.344Z,2.47
2022-12-26T23:36:48.997Z,4.18
2022-12-26T23:39:15.681Z,2.55
2022-12-26T23:41:42.268Z,2.42
2022-12-26T23:44:08.927Z,2.67
2022-12-26T23:46:35.793Z,1.98
2022-12-26T23:49:02.421Z,4.25
2022-12-26T23:51:29.007Z,2.53
2022-12-26T23:53:55.849Z,2.38
2022-12-26T23:56:22.433Z,2.85
2022-12-26T23:58:49.063Z,3.15
